EA1ABW-2
43.24.77N 005.47.77W
IN73CJ aprs.fi
zuletzt gehoert:
2023-02-05T20:02:23Z
zuerst gehoert:
2022-06-05T12:27:25Z

APRS Siero [IN73CJ], 2 Stunde(n), EA1ABW-2 [21:16:04, 0s].
EA1ABW 43.24.77N 005.47.77WIN73CJ 0.728km 324°NW20:02:23ZMMDVM MMDVM HS Hat 439.8250/439.8250 CC1(3EA1ABW-2)
EA1IPU 43.26.21N 005.46.62WIN73CK 3.449km 19°NNE20:02:48ZMMDVM MMDVM HS Hat 439.8000/439.8000 CC1(3EA1IPU-1)
LEMR 43.25.83N 005.49.60WIN73CK 3.845km 311°NW20:00:04ZAerodromo de la Morgal (123.500MHz): LEAS 051900Z 10011KT 060V140 CAVOK 09/06 Q1035 NOSIG=
LEHU 43.22.63N 005.49.57WIN73CJ 4.434km 220°SW20:00:03ZHelipuerto del HUCA: LEAS 051900Z 10011KT 060V140 CAVOK 09/06 Q1035 NOSIG=
LEGM 43.26.15N 005.49.84WIN73CK 4.488km 315°NW20:00:03ZHelipuerto de La Morgal (123.500MHz): LEAS 051900Z 10011KT 060V140 CAVOK 09/06 Q1035 NOSIG=
EA1JBU 43.21.85N 005.51.13WIN73BI 6.925km 226°SW20:00:05ZEA1JBU(3EA1JBU-1)
33D00 43.21.63N 005.51.13WIN73BI 7.207km 223°SW20:01:43Z33-D-00 Protección Civil REMER / Delegación del Gobierno en Asturias
ED1ZAU 43.23.04N 005.52.75WIN73BJ 7.604km 250°WSW20:00:32ZRD625 438.5000/430.9000 CC1
EA1L 43.20.37N 005.51.13WIN73BI 9.034km 213°SSW20:15:05Zea1l@ure.es V=13.3V
Wind 034°/004kn, Böen bis 006kn, Temp 6.67c, Regen 0.0mm, letzte 24h 0.0mm, seit 0h 0.0mm, Baro 1033.2h, Hum: 85%(2EA1L-13)
EA1HWX 43.19.29N 005.50.96WIN73BH 10.685km 206°SSW20:03:11ZDMO - UHF 439.7250/431.0000 CC11(3EA1HWX-2)
ED1ZAS 43.27.52N 005.40.17WIN73DL 11.328km 60°ENE20:00:31ZRD985 438.2250/430.6250 CC1
ED1ZAE 43.27.99N 005.40.54WIN73DL 11.368km 55°NE20:08:35ZWIDE3-3 ESAS3-3 IN73DL WWW.EA1URG.ORG(3ED1ZAE-3)
EA4ACU 43.29.56N 005.38.92WIN73EL 14.877km 50°NE20:03:40ZMMDVM MMDVM HS Hat 432.7000/432.7000 CC1(3EA4ACU-1)
ED1ZAY 43.29.47N 005.56.54WIN73AL 15.359km 307°NW20:00:37ZRD625 438.3000/430.7000 CC1
EA1FLQ 43.22.00N 005.36.35WIN73EI 15.630km 107°ESE20:01:17ZMMDVM DVMega 430.9750/430.9750 CC1
EB1TK 43.32.22N 005.42.32WIN73DM 15.968km 26°NNE20:15:16ZWind 056°/021kn, Böen bis 031kn, Temp 11.11c, Regen 0.0mm, letzte 24h 0.0mm, seit 0h 0.0mm, Baro 1038.2h, Hum: 81%(3EB1TK-13)
EA1FFA 43.31.53N 005.40.64WIN73DM 16.006km 35°NE20:03:07ZMMDVM MMDVM HS Hat 438.8000/438.8000 CC1(3EA1FFA-1)
EA1FPN 43.32.38N 005.42.17WIN73DM 16.306km 26°NNE20:02:04ZMMDVM MMDVM HS Hat 439.8750/439.8750 CC1
EA1DZR 43.31.49N 005.40.00WIN73DM 16.447km 37°NE20:02:45ZMMDVM MMDVM HS Hat 432.2000/432.2000 CC2(3EA1DZR-2)
MMDVM DMO 434.3500/434.3500 CC1(2EA1DZR-4)
MMDVM DVMega 431.1000/431.1000 CC1(2EA1DZR-1)
LEEL 43.32.98N 005.41.71WIN73DN 17.571km 26°NNE20:00:03ZHelipuerto de El Musel: LEAS 051900Z 10011KT 060V140 CAVOK 09/06 Q1035 NOSIG=
EB1EHT 43.32.47N 005.40.40WIN73DM 17.610km 33°NNE19:25:26ZMMDVM MMDVM HS Hat 433.5550/433.5550 CC2(3EB1EHT-1)
440 MMDVM Voice 433.55500MHz +0.0000MHz, APRS for DMRGateway(2EB1EHT-D)
EA1AHA 43.32.74N 005.54.35WIN73BN 17.925km 329°NNW20:01:13ZMMDVM MMDVM HS 433.5000/433.5000 CC1
EA1AUM 43.32.75N 005.54.47WIN73BN 18.025km 328°NNW20:02:43ZMMDVM MMDVM HS Hat 432.1000/432.1000 CC1(3EA1AUM-1)
EB1GEM 43.30.00N 005.36.07WIN73EM 18.452km 56°NE20:15:04ZWX3in1Plus2.0 U=13.3V,T=??.?C/??.?F(3EB1GEM-3)
EA1IEJ 43.32.33N 005.38.92WIN73EM 18.560km 38°NE20:02:55ZMMDVM DMO 222.3400/222.3400 CC1(3EA1IEJ-11)
MMDVM MMDVM HS Hat 438.8500/438.8500 CC6(2EA1IEJ-1)
EA1IMW 43.14.36N 005.46.93WIN73CF 18.732km 178°S20:02:49ZGRUPO RADIO GALENA (GRG) 430.4500/430.4500 CC1(3EA1IMW-1)
EA1DZL 43.33.56N 005.55.78WIN73AN 20.230km 326°NW20:04:17ZMMDVM MMDVM HS Hat 438.8000/438.8000 CC1(3EA1DZL-1)
EA1AQK 43.16.49N 005.35.99WIN73EG 21.360km 134°SE20:02:55ZMMDVM MMDVM HS Hat 439.8500/439.8500 CC1(3EA1AQK-1)
EB1DGC 43.12.60N 005.45.59WIN73CF 22.123km 173°S20:01:06ZMMDVM MMDVM HS Hat 433.4500/433.4500 CC1
EA1HWA 43.12.00N 005.47.40WIN73CE 23.092km 180°S20:01:31ZMMDVM MMDVM HS Hat 433.4500/433.4500 CC1
EA1HJA 43.28.10N 005.30.45WIN73FL 23.861km 73°ENE20:13:09ZEA1HJA@URE.ES
EA1HJA@URE.ES(2EA1HJA-2)
EA1RCG 43.09.45N 005.49.78WIN73CD 27.975km 186°S20:02:38ZGRUPO RADIO GALENA (GRG) 430.4500/430.4500 CC1(3EA1RCG-3)
EA1JW 43.31.35N 005.28.83WIN73GM 28.121km 63°ENE20:02:37ZMMDVM MMDVM HS Hat 436.5000/436.5000 CC1(3EA1JW-3)
EA1JAY 43.29.33N 005.26.78WIN73GL 29.254km 72°ENE20:15:03ZTransmission ended(3EA1JAY-7)
434.525MHz Nodo TETRA DMO(2EA1JAY-4)
EA1JAY(2EA1JAY-2)
EA1FHR 43.28.72N 005.26.41WIN73GL 29.388km 74°ENE20:01:01ZMMDVM MMDVM HS Hat 439.1500/439.1500 CC1
EA1AYL 43.29.44N 006.09.04WIN63WL 30.470km 288°WNW20:01:12ZMMDVM MMDVM HS Hat 433.0750/433.0750 CC1
ED1ZAD 43.07.90N 005.38.52WIN73ED 32.953km 158°SSE20:12:02ZED1ZAD-3 APRS Digi/Igate(3ED1ZAD-3)
EC1KV 43.34.01N 006.16.01WIN63UN 42.261km 295°WNW19:57:38ZALBUERNE(3EC1KV-1)
EA1JBE 43.30.90N 005.16.15WIN73IM 43.770km 74°ENE20:15:03ZALBUERNE(3EA1JBE-13)
MAIN QTH http://qrz.com/db/ea1jbe(2EA1JBE-1)
LETN 43.20.05N 006.22.69WIN63TI 48.163km 260°W20:00:04ZAerodromo de La Curiscada (Tineo): LEAS 051900Z 10011KT 060V140 CAVOK 09/06 Q1035 NOSIG=

aprs.pl 5.0.011w DL3EL © 2006-2021 [10410589]